Time;durP1;ratioP1;P1;durP2;ratioP2;P2;SDS_P1;SDS_P2;PMS_P1;PMS_P2;Temp;Humidity;BMP_temperature;BMP_pressure;BME280_temperature;BME280_humidity;BME280_pressure;Samples;Min_cycle;Max_cycle;Signal;HPM_P1;HPM_P2
2022/03/02 00:02:00;;;;;;;19.20;7.95;;;2.70;99.90;;;-144.05;100.00;68007.91;4995347;28;20117;-78
2022/03/02 00:06:31;;;;;;;13.95;7.55;;;2.70;99.90;;;-144.05;100.00;68007.91;4998784;28;20109;-78
2022/03/02 00:10:58;;;;;;;16.63;7.75;;;2.60;99.90;;;-144.05;100.00;68007.91;4994158;28;20120;-77
2022/03/02 00:15:29;;;;;;;15.88;8.45;;;2.60;99.90;;;-144.05;100.00;68007.91;4994376;28;20034;-77
2022/03/02 00:20:03;;;;;;;15.93;8.50;;;2.60;99.90;;;-144.05;100.00;68007.91;4995621;28;20486;-77
2022/03/02 00:24:31;;;;;;;13.48;7.40;;;2.60;99.90;;;-144.05;100.00;68007.91;4997575;28;20482;-77
2022/03/02 00:29:07;;;;;;;15.57;8.40;;;2.60;99.90;;;-144.05;100.00;68007.91;4997102;28;20422;-76
2022/03/02 00:33:40;;;;;;;14.23;8.07;;;2.60;99.90;;;-144.05;100.00;68007.91;4996853;28;20065;-78
2022/03/02 00:38:10;;;;;;;15.35;8.48;;;2.50;99.90;;;-144.05;100.00;68007.91;4979053;28;20293;-78
2022/03/02 00:42:44;;;;;;;15.35;7.70;;;2.50;99.90;;;-144.05;100.00;68007.91;4997126;28;20030;-78
2022/03/02 00:47:12;;;;;;;15.85;7.90;;;2.40;99.90;;;-144.05;100.00;68007.91;5036986;28;20033;-76
2022/03/02 00:51:44;;;;;;;18.00;8.65;;;2.40;99.90;;;-144.05;100.00;68007.91;5036666;28;20048;-75
2022/03/02 00:56:20;;;;;;;15.68;8.07;;;2.40;99.90;;;-144.05;100.00;68007.91;5036681;28;20037;-78
2022/03/02 01:00:49;;;;;;;16.02;8.25;;;2.30;99.90;;;-144.05;100.00;68007.91;5035736;28;20061;-76
2022/03/02 01:05:19;;;;;;;16.38;8.98;;;2.20;99.90;;;-144.05;100.00;68007.91;5035049;28;20025;-78
2022/03/02 01:09:50;;;;;;;11.77;6.43;;;2.30;99.90;;;-144.05;100.00;68007.91;5033867;28;20039;-77
2022/03/02 01:14:20;;;;;;;;;;;2.20;99.90;;;-144.05;100.00;68007.91;5033968;28;20036;-76
2022/03/02 01:18:53;;;;;;;15.95;8.57;;;2.20;99.90;;;-144.05;100.00;68007.91;5040953;28;19913;-76
2022/03/02 01:23:20;;;;;;;17.33;8.98;;;2.30;99.90;;;-144.05;100.00;68007.91;5034179;28;20037;-77
2022/03/02 01:27:57;;;;;;;17.67;9.05;;;2.30;99.90;;;-144.05;100.00;68007.91;5034573;28;20040;-76
2022/03/02 01:32:25;;;;;;;17.63;8.68;;;2.10;99.90;;;-144.05;100.00;68007.91;5033760;28;20374;-77
2022/03/02 01:36:53;;;;;;;15.32;8.13;;;1.90;99.90;;;-144.05;100.00;68007.91;5034603;28;20069;-75
2022/03/02 01:41:20;;;;;;;16.98;8.73;;;1.90;99.90;;;-144.05;100.00;68007.91;5033232;28;20085;-78
2022/03/02 01:45:50;;;;;;;16.95;8.73;;;1.70;99.90;;;-144.05;100.00;68007.91;5026868;28;20113;-77
2022/03/02 01:50:17;;;;;;;15.52;8.02;;;1.50;99.90;;;-144.05;100.00;68007.91;5013706;28;20034;-77
2022/03/02 01:54:53;;;;;;;18.63;8.32;;;1.40;99.90;;;-144.05;100.00;68007.91;5015070;28;20101;-76
2022/03/02 01:59:25;;;;;;;18.63;9.25;;;1.40;99.90;;;-144.05;100.00;68007.91;5015327;28;20045;-77
2022/03/02 02:03:53;;;;;;;17.42;9.20;;;1.30;99.90;;;-144.05;100.00;68007.91;5014556;28;20056;-76
2022/03/02 02:08:23;;;;;;;16.85;9.65;;;1.20;99.90;;;-144.05;100.00;68007.91;5015440;28;20084;-77
2022/03/02 02:12:51;;;;;;;19.17;9.35;;;1.10;99.90;;;-144.05;100.00;68007.91;5014998;28;20198;-74
2022/03/02 02:17:18;;;;;;;16.05;8.32;;;1.10;99.90;;;-144.05;100.00;68007.91;5013814;28;20048;-77
2022/03/02 02:21:46;;;;;;;15.85;9.15;;;1.10;99.90;;;-144.05;100.00;68007.91;5014227;28;20025;-76
2022/03/02 02:26:15;;;;;;;16.45;8.05;;;1.20;99.90;;;-144.05;100.00;68007.91;5013822;28;20060;-76
2022/03/02 02:30:44;;;;;;;17.13;8.50;;;1.20;99.90;;;-144.05;100.00;68007.91;5013301;28;20072;-77
2022/03/02 02:35:25;;;;;;;16.65;8.65;;;1.00;99.90;;;-144.05;100.00;68007.91;5013681;28;20027;-76
2022/03/02 02:39:56;;;;;;;13.82;7.97;;;0.90;99.90;;;-144.05;100.00;68007.91;5012447;28;20022;-77
2022/03/02 02:44:27;;;;;;;17.58;8.88;;;0.80;99.90;;;-144.05;100.00;68007.91;5016949;28;20029;-77
2022/03/02 02:48:56;;;;;;;16.02;8.48;;;0.70;99.90;;;-144.05;100.00;68007.91;5036123;28;20081;-77
2022/03/02 02:53:39;;;;;;;21.65;10.60;;;0.60;99.90;;;-144.05;100.00;68007.91;5034212;28;20029;-77
2022/03/02 02:58:10;;;;;;;18.80;9.25;;;0.60;99.90;;;-144.05;100.00;68007.91;5045174;28;20112;-77
2022/03/02 03:02:44;;;;;;;17.10;8.90;;;0.70;99.90;;;-144.05;100.00;68007.91;5034049;28;20492;-78
2022/03/02 03:07:13;;;;;;;17.50;8.88;;;1.00;99.90;;;-144.05;100.00;68007.91;5036592;28;20060;-78
2022/03/02 03:11:44;;;;;;;17.48;9.40;;;1.00;99.90;;;-144.05;100.00;68007.91;5034320;28;20033;-77
2022/03/02 03:16:16;;;;;;;;;;;1.00;99.90;;;-144.05;100.00;68007.91;5034914;28;20053;-77
2022/03/02 03:20:50;;;;;;;14.57;7.55;;;0.90;99.90;;;-144.05;100.00;68007.91;5033526;28;19909;-77
2022/03/02 03:25:20;;;;;;;21.63;8.70;;;0.80;99.90;;;-144.05;100.00;68007.91;5032520;28;20029;-75
2022/03/02 03:29:48;;;;;;;14.45;8.02;;;0.80;99.90;;;-144.05;100.00;68007.91;5050945;28;20040;-76
2022/03/02 03:34:15;;;;;;;15.50;8.98;;;0.80;99.90;;;-144.05;100.00;68007.91;5033315;28;20068;-77
2022/03/02 03:38:46;;;;;;;17.13;9.02;;;0.80;99.90;;;-144.05;100.00;68007.91;5033024;28;20030;-78
2022/03/02 03:43:16;;;;;;;;;;;0.80;99.90;;;-144.05;100.00;68007.91;5032019;28;20029;-77
2022/03/02 03:47:43;;;;;;;13.10;7.40;;;0.90;99.90;;;-144.05;100.00;68007.91;5013663;28;19948;-77
2022/03/02 03:52:12;;;;;;;16.55;8.90;;;0.90;99.90;;;-144.05;100.00;68007.91;5013094;28;20460;-78
2022/03/02 03:56:48;;;;;;;18.38;8.52;;;0.80;99.90;;;-144.05;100.00;68007.91;5016970;28;20046;-76
2022/03/02 04:01:21;;;;;;;16.55;8.40;;;0.80;99.90;;;-144.05;100.00;68007.91;5015073;28;20508;-78
2022/03/02 04:05:51;;;;;;;16.63;7.63;;;0.80;99.90;;;-144.05;100.00;68007.91;5016616;28;20034;-76
2022/03/02 04:10:24;;;;;;;;;;;0.70;99.90;;;-144.05;100.00;68007.91;5016270;28;20401;-77
2022/03/02 04:14:52;;;;;;;12.43;7.43;;;0.60;99.90;;;-144.05;100.00;68007.91;5015531;28;19913;-77
2022/03/02 04:19:22;;;;;;;16.30;8.68;;;0.50;99.90;;;-144.05;100.00;68007.91;5016160;28;20101;-77
2022/03/02 04:23:55;;;;;;;16.98;7.95;;;0.50;99.90;;;-144.05;100.00;68007.91;5016957;28;20053;-77
2022/03/02 04:28:23;;;;;;;14.80;8.35;;;0.30;99.90;;;-144.05;100.00;68007.91;5016747;28;20327;-77
2022/03/02 04:32:53;;;;;;;14.95;8.93;;;0.20;99.90;;;-144.05;100.00;68007.91;5016591;28;20061;-77
2022/03/02 04:37:20;;;;;;;16.85;9.05;;;0.20;99.90;;;-144.05;100.00;68007.91;5015970;28;20026;-76
2022/03/02 04:41:54;;;;;;;22.15;9.18;;;0.20;99.90;;;-144.05;100.00;68007.91;5016401;28;20057;-77
2022/03/02 04:46:27;;;;;;;15.27;8.48;;;0.20;99.90;;;-144.05;100.00;68007.91;5029015;28;20060;-78
2022/03/02 04:50:57;;;;;;;15.85;8.57;;;0.20;99.90;;;-144.05;100.00;68007.91;5035139;28;20029;-76
2022/03/02 04:55:25;;;;;;;16.63;8.52;;;0.30;99.90;;;-144.05;100.00;68007.91;5036371;28;20033;-76
2022/03/02 05:00:00;;;;;;;18.60;8.90;;;0.20;99.90;;;-144.05;100.00;68007.91;5036017;28;20099;-78
2022/03/02 05:04:28;;;;;;;16.83;8.45;;;0.00;99.90;;;-144.05;100.00;68007.91;5035632;28;20036;-77
2022/03/02 05:08:56;;;;;;;21.80;9.13;;;-0.10;99.90;;;-144.05;100.00;68007.91;5035597;28;20401;-76
2022/03/02 05:13:23;;;;;;;22.05;9.55;;;-0.20;99.90;;;-144.05;100.00;68007.91;5033905;28;20374;-77
2022/03/02 05:17:56;;;;;;;16.88;7.72;;;-0.20;99.90;;;-144.05;100.00;68007.91;5035409;28;20038;-76
2022/03/02 05:22:27;;;;;;;14.90;8.65;;;-0.30;99.90;;;-144.05;100.00;68007.91;5035125;28;20033;-77
2022/03/02 05:27:03;;;;;;;22.55;10.25;;;-0.40;99.90;;;-144.05;100.00;68007.91;5034989;28;20036;-77
2022/03/02 05:31:30;;;;;;;18.65;8.15;;;-0.50;99.90;;;-144.05;100.00;68007.91;5033566;28;20048;-77
2022/03/02 05:36:01;;;;;;;23.15;8.90;;;-0.50;99.90;;;-144.05;100.00;68007.91;5037702;28;20060;-77
2022/03/02 05:40:31;;;;;;;17.17;9.02;;;-0.40;99.90;;;-144.05;100.00;68007.91;5033972;28;20030;-78
2022/03/02 05:45:01;;;;;;;17.35;7.90;;;-0.20;99.90;;;-144.05;100.00;68007.91;5033875;28;20064;-77
2022/03/02 05:49:31;;;;;;;24.77;10.15;;;-0.10;99.90;;;-144.05;100.00;68007.91;5019815;28;20090;-76
2022/03/02 05:53:58;;;;;;;19.33;8.77;;;-0.10;99.90;;;-144.05;100.00;68007.91;5015556;28;20041;-77
2022/03/02 05:58:25;;;;;;;20.48;8.88;;;-0.10;99.90;;;-144.05;100.00;68007.91;5015341;28;20029;-77
2022/03/02 06:02:53;;;;;;;19.92;9.30;;;-0.10;99.90;;;-144.05;100.00;68007.91;5019533;28;20160;-77
2022/03/02 06:07:24;;;;;;;16.33;9.35;;;0.00;99.90;;;-144.05;100.00;68007.91;5017255;28;20048;-77
2022/03/02 06:12:00;;;;;;;18.73;8.52;;;0.10;99.90;;;-144.05;100.00;68007.91;5014979;28;20044;-77
2022/03/02 06:16:30;;;;;;;18.75;8.77;;;0.20;99.90;;;-144.05;100.00;68007.91;5013435;28;20045;-77
2022/03/02 06:21:04;;;;;;;17.45;8.60;;;0.30;99.90;;;-144.05;100.00;68007.91;5013445;28;20030;-77
2022/03/02 06:25:44;;;;;;;20.20;9.45;;;0.50;99.90;;;-144.05;100.00;68007.91;5014370;28;20088;-77
2022/03/02 06:30:17;;;;;;;19.45;8.35;;;0.70;99.90;;;-144.05;100.00;68007.91;5024052;28;20041;-77
2022/03/02 06:34:51;;;;;;;17.50;8.93;;;0.90;99.90;;;-144.05;100.00;68007.91;5034841;28;20045;-76
2022/03/02 06:39:21;;;;;;;17.65;8.73;;;1.10;99.90;;;-144.05;100.00;68007.91;5037030;28;20041;-73
2022/03/02 06:44:27;;;;;;;12.88;6.82;;;1.30;99.90;;;-144.05;100.00;68007.91;5036288;28;20033;-75
2022/03/02 06:49:16;;;;;;;21.30;9.55;;;1.40;99.90;;;-144.05;100.00;68007.91;5056703;28;20033;-74
2022/03/02 06:53:46;;;;;;;21.70;9.80;;;1.60;99.90;;;-144.05;100.00;68007.91;5054548;28;20037;-75
2022/03/02 06:58:21;;;;;;;19.83;9.05;;;2.10;99.90;;;-144.05;100.00;68007.91;5053980;28;20005;-75
2022/03/02 07:03:03;;;;;;;17.60;8.82;;;2.60;99.90;;;-144.05;100.00;68007.91;5053095;28;20021;-76
2022/03/02 07:07:37;;;;;;;19.60;8.13;;;3.10;99.90;;;-144.05;100.00;68007.91;5051224;28;20016;-75
2022/03/02 07:12:08;;;;;;;17.73;9.68;;;3.30;99.90;;;-144.05;100.00;68007.91;5054843;28;20045;-75
2022/03/02 07:16:40;;;;;;;17.55;9.15;;;3.60;99.90;;;-144.05;100.00;68007.91;5037519;28;20038;-77
2022/03/02 07:21:11;;;;;;;17.08;8.57;;;3.90;99.90;;;-144.05;100.00;68007.91;5033545;28;20040;-79
2022/03/02 07:26:22;;;;;;;17.13;7.82;;;4.20;99.90;;;-144.05;100.00;68007.91;5034811;28;20110;-75
2022/03/02 07:30:51;;;;;;;24.02;9.75;;;4.20;99.90;;;-144.05;100.00;68007.91;5047625;28;20109;-75
2022/03/02 07:35:27;;;;;;;24.48;9.77;;;3.70;99.90;;;-144.05;100.00;68007.91;5054336;28;20052;-77
2022/03/02 07:39:59;;;;;;;25.90;11.73;;;3.50;99.90;;;-144.05;100.00;68007.91;5031647;28;20029;-78
2022/03/02 07:44:33;;;;;;;27.15;12.35;;;3.60;99.90;;;-144.05;100.00;68007.91;5034426;28;20026;-79
2022/03/02 07:49:01;;;;;;;27.10;13.18;;;4.50;99.90;;;-144.05;100.00;68007.91;4993105;28;20031;-77
2022/03/02 07:53:31;;;;;;;28.85;11.85;;;5.40;99.90;;;-144.05;100.00;68007.91;4995291;28;20085;-79
2022/03/02 07:58:01;;;;;;;28.52;12.93;;;6.00;99.90;;;-144.05;100.00;68007.91;4995096;28;20194;-79
2022/03/02 08:02:34;;;;;;;25.05;11.63;;;6.50;99.90;;;-144.05;100.00;68007.91;4994009;28;20041;-79
2022/03/02 08:07:05;;;;;;;24.23;11.60;;;7.00;99.90;;;-144.05;100.00;68007.91;4998009;28;20039;-77
2022/03/02 08:11:37;;;;;;;24.48;11.63;;;7.40;99.90;;;-144.05;100.00;68007.91;4996226;28;20034;-77
2022/03/02 08:16:06;;;;;;;22.77;11.13;;;7.70;95.10;;;-144.05;100.00;68007.91;4994796;28;20030;-78
2022/03/02 08:20:34;;;;;;;24.60;11.55;;;8.10;90.40;;;-144.05;100.00;68007.91;4994792;28;20069;-77
2022/03/02 08:25:07;;;;;;;23.15;10.57;;;8.30;84.70;;;-144.05;100.00;68007.91;4994614;28;20034;-78
2022/03/02 08:29:36;;;;;;;24.73;11.05;;;8.50;81.50;;;-144.05;100.00;68007.91;4994479;28;20512;-77
2022/03/02 08:34:12;;;;;;;21.63;11.63;;;8.90;79.90;;;-144.05;100.00;68007.91;4992710;28;20091;-78
2022/03/02 08:38:42;;;;;;;28.65;10.43;;;9.30;76.70;;;-144.05;100.00;68007.91;4994747;28;20490;-79
2022/03/02 08:43:12;;;;;;;26.00;10.82;;;9.60;73.80;;;-144.05;100.00;68007.91;4999039;28;20038;-78
2022/03/02 08:47:39;;;;;;;26.40;12.15;;;9.90;71.00;;;-144.05;100.00;68007.91;5017370;28;20072;-80
2022/03/02 08:52:08;;;;;;;27.80;11.05;;;9.90;67.40;;;-144.05;100.00;68007.91;5019250;28;20096;-76
2022/03/02 08:56:56;;;;;;;28.17;11.27;;;9.70;67.20;;;-144.05;100.00;68007.91;5016636;28;20042;-78
2022/03/02 09:01:29;;;;;;;32.25;12.38;;;9.90;66.40;;;-144.05;100.00;68007.91;5019167;28;20041;-75
2022/03/02 09:06:03;;;;;;;30.77;12.10;;;9.80;68.90;;;-144.05;100.00;68007.91;5016899;28;20026;-79
2022/03/02 09:10:34;;;;;;;25.20;11.40;;;10.20;67.20;;;-144.05;100.00;68007.91;5017415;28;20049;-76
2022/03/02 09:15:03;;;;;;;24.50;11.82;;;10.40;64.40;;;-144.05;100.00;68007.91;5017664;28;20030;-78
2022/03/02 09:19:32;;;;;;;22.85;11.45;;;10.40;63.30;;;-144.05;100.00;68007.91;5015633;28;20425;-78
2022/03/02 09:24:08;;;;;;;27.20;11.57;;;10.40;63.30;;;-144.05;100.00;68007.91;5016213;28;20042;-77
2022/03/02 09:28:38;;;;;;;19.77;10.57;;;10.50;61.30;;;-144.05;100.00;68007.91;5017114;28;20060;-78
2022/03/02 09:33:08;;;;;;;21.40;10.73;;;10.60;61.10;;;-144.05;100.00;68007.91;5017599;28;20026;-78
2022/03/02 09:37:36;;;;;;;19.05;9.88;;;11.20;59.90;;;-144.05;100.00;68007.91;5015291;28;20037;-76
2022/03/02 09:42:08;;;;;;;17.10;9.73;;;11.60;58.00;;;-144.05;100.00;68007.91;5015589;28;20042;-78
2022/03/02 09:46:57;;;;;;;20.50;10.60;;;11.80;56.90;;;-144.05;100.00;68007.91;5031074;28;20069;-75
2022/03/02 09:51:33;;;;;;;19.80;9.25;;;11.80;56.20;;;-144.05;100.00;68007.91;5034520;28;20763;-79
2022/03/02 09:56:11;;;;;;;16.70;8.15;;;11.80;55.10;;;-144.05;100.00;68007.91;5038148;28;20030;-79
2022/03/02 10:01:01;;;;;;;15.98;9.25;;;12.00;53.60;;;-144.05;100.00;68007.91;5035648;28;20098;-79
2022/03/02 10:05:50;;;;;;;13.07;8.32;;;12.00;54.10;;;-144.05;100.00;68007.91;5040882;28;20048;-76
2022/03/02 10:10:24;;;;;;;13.52;7.70;;;11.70;53.70;;;-144.05;100.00;68007.91;5038403;28;20025;-77
2022/03/02 10:14:58;;;;;;;12.93;7.70;;;11.90;53.00;;;-144.05;100.00;68007.91;5036086;28;20145;-77
2022/03/02 10:19:35;;;;;;;11.88;7.88;;;12.20;53.60;;;-144.05;100.00;68007.91;5036541;28;20105;-74
2022/03/02 10:24:14;;;;;;;12.13;8.05;;;12.50;51.60;;;-144.05;100.00;68007.91;5035706;28;20111;-77
2022/03/02 10:29:10;;;;;;;13.30;7.97;;;12.60;52.00;;;-144.05;100.00;68007.91;5033585;28;20120;-76
2022/03/02 10:33:54;;;;;;;13.07;7.18;;;12.60;50.40;;;-144.05;100.00;68007.91;5033431;28;20025;-79
2022/03/02 10:38:42;;;;;;;12.48;8.05;;;12.90;50.50;;;-144.05;100.00;68007.91;5034795;28;20069;-77
2022/03/02 10:43:19;;;;;;;14.38;7.85;;;13.00;50.40;;;-144.05;100.00;68007.91;5035239;28;20053;-77
2022/03/02 10:47:59;;;;;;;14.70;9.38;;;13.00;50.50;;;-144.05;100.00;68007.91;5012959;28;20030;-76
2022/03/02 10:52:35;;;;;;;16.93;8.17;;;12.70;50.80;;;-144.05;100.00;68007.91;5014071;28;20160;-75
2022/03/02 10:57:10;;;;;;;12.80;7.57;;;12.70;51.80;;;-144.05;100.00;68007.91;5012793;28;20287;-74
2022/03/02 11:01:46;;;;;;;13.57;7.82;;;13.00;49.80;;;-144.05;100.00;68007.91;5015577;28;20029;-75
2022/03/02 11:06:16;;;;;;;13.45;7.38;;;13.10;48.20;;;-144.05;100.00;68007.91;5015638;28;20485;-77
2022/03/02 11:10:44;;;;;;;15.53;8.40;;;13.10;48.40;;;-144.05;100.00;68007.91;5013307;28;20481;-79
2022/03/02 11:15:13;;;;;;;15.45;7.50;;;13.30;47.90;;;-144.05;100.00;68007.91;5012333;28;20072;-76
2022/03/02 11:19:57;;;;;;;13.82;7.00;;;13.10;48.10;;;-144.05;100.00;68007.91;5014475;28;20026;-79
2022/03/02 11:24:35;;;;;;;18.38;7.45;;;13.10;48.60;;;-144.05;100.00;68007.91;5014042;28;20034;-77
2022/03/02 11:29:10;;;;;;;11.25;7.22;;;13.40;47.90;;;-144.05;100.00;68007.91;5014022;28;20033;-78
2022/03/02 11:33:54;;;;;;;12.38;7.10;;;13.60;46.80;;;-144.05;100.00;68007.91;5012841;28;20037;-76
2022/03/02 11:38:22;;;;;;;11.65;7.10;;;13.50;46.00;;;-144.05;100.00;68007.91;5013073;28;20038;-78
2022/03/02 11:42:55;;;;;;;13.45;8.00;;;13.60;46.20;;;-144.05;100.00;68007.91;5012266;28;20117;-78
2022/03/02 11:47:24;;;;;;;11.38;7.70;;;13.70;45.60;;;-144.05;100.00;68007.91;5043241;28;20085;-76
2022/03/02 11:52:14;;;;;;;12.45;7.63;;;13.50;46.10;;;-144.05;100.00;68007.91;5052781;28;20047;-78
2022/03/02 11:57:01;;;;;;;12.23;7.07;;;13.50;46.20;;;-144.05;100.00;68007.91;5044013;28;20033;-77
2022/03/02 12:01:35;;;;;;;13.05;7.82;;;13.60;43.80;;;-144.05;100.00;68007.91;5040267;28;20037;-75
2022/03/02 12:06:10;;;;;;;11.23;7.03;;;13.50;44.40;;;-144.05;100.00;68007.91;5033829;28;20477;-77
2022/03/02 12:10:42;;;;;;;12.63;8.25;;;13.50;44.40;;;-144.05;100.00;68007.91;5033118;28;20029;-78
2022/03/02 12:15:11;;;;;;;13.65;7.32;;;13.30;45.10;;;-144.05;100.00;68007.91;5034951;28;20503;-78
2022/03/02 12:19:40;;;;;;;12.30;7.47;;;13.20;43.90;;;-144.05;100.00;68007.91;5038893;28;20477;-76
2022/03/02 12:24:09;;;;;;;13.27;7.65;;;13.10;45.30;;;-144.05;100.00;68007.91;5038594;28;20037;-75
2022/03/02 12:28:40;;;;;;;11.35;6.25;;;13.20;44.50;;;-144.05;100.00;68007.91;5036942;28;20033;-77
2022/03/02 12:33:17;;;;;;;;;;;13.50;44.40;;;-144.05;100.00;68007.91;5036499;28;20052;-77
2022/03/02 12:37:46;;;;;;;9.20;6.55;;;13.50;43.60;;;-144.05;100.00;68007.91;5035696;28;19967;-78
2022/03/02 12:42:22;;;;;;;10.05;6.25;;;13.50;43.10;;;-144.05;100.00;68007.91;5035248;28;20033;-78
2022/03/02 12:47:02;;;;;;;7.82;5.78;;;13.80;42.20;;;-144.05;100.00;68007.91;5017914;28;20034;-76
2022/03/02 12:51:34;;;;;;;10.70;6.43;;;13.50;39.80;;;-144.05;100.00;68007.91;5016854;28;20042;-78
2022/03/02 12:56:06;;;;;;;9.40;6.43;;;13.30;40.70;;;-144.05;100.00;68007.91;5016626;28;20409;-77
2022/03/02 13:00:39;;;;;;;9.90;6.20;;;13.40;41.20;;;-144.05;100.00;68007.91;5017737;28;20022;-76
2022/03/02 13:05:12;;;;;;;11.25;6.85;;;13.40;40.20;;;-144.05;100.00;68007.91;5017236;28;20026;-76
2022/03/02 13:09:55;;;;;;;10.75;6.15;;;13.50;43.90;;;-144.05;100.00;68007.91;5016450;28;20030;-77
2022/03/02 13:14:43;;;;;;;10.52;6.40;;;13.60;39.90;;;-144.05;100.00;68007.91;5015364;28;20042;-76
2022/03/02 13:19:22;;;;;;;10.25;6.90;;;13.40;40.20;;;-144.05;100.00;68007.91;5015201;28;20077;-79
2022/03/02 13:24:20;;;;;;;12.25;7.00;;;13.20;41.30;;;-144.05;100.00;68007.91;5016108;28;20086;-77
2022/03/02 13:29:12;;;;;;;11.73;7.05;;;13.20;42.80;;;-144.05;100.00;68007.91;5015699;28;20084;-76
2022/03/02 13:34:05;;;;;;;13.95;7.20;;;13.10;43.70;;;-144.05;100.00;68007.91;5015176;28;20062;-76
2022/03/02 13:38:51;;;;;;;10.27;6.82;;;13.00;43.10;;;-144.05;100.00;68007.91;5015146;28;20056;-76
2022/03/02 13:43:42;;;;;;;14.40;7.10;;;13.20;43.10;;;-144.05;100.00;68007.91;5016144;28;20120;-76
2022/03/02 13:48:30;;;;;;;12.10;8.02;;;13.10;43.80;;;-144.05;100.00;68007.91;5014861;28;20026;-78
2022/03/02 13:53:36;;;;;;;11.15;6.93;;;13.10;44.10;;;-144.05;100.00;68007.91;5016675;28;20048;-78
2022/03/02 13:58:19;;;;;;;12.88;7.32;;;12.90;44.70;;;-144.05;100.00;68007.91;5014714;28;20042;-76
2022/03/02 14:02:49;;;;;;;13.68;7.75;;;13.00;44.40;;;-144.05;100.00;68007.91;5015324;28;20057;-75
2022/03/02 14:07:24;;;;;;;12.50;7.13;;;12.60;44.30;;;-144.05;100.00;68007.91;5014408;28;20034;-77
2022/03/02 14:12:09;;;;;;;13.45;7.30;;;12.40;44.20;;;-144.05;100.00;68007.91;5014574;28;20363;-75
2022/03/02 14:16:40;;;;;;;11.55;7.30;;;12.50;44.60;;;-144.05;100.00;68007.91;5014611;28;20097;-75
2022/03/02 14:21:12;;;;;;;;;;;12.50;45.30;;;-144.05;100.00;68007.91;5013919;28;20085;-77
2022/03/02 14:26:02;;;;;;;11.05;6.55;;;12.60;45.60;;;-144.05;100.00;68007.91;5014943;28;19925;-77
2022/03/02 14:30:36;;;;;;;12.32;7.60;;;12.50;46.10;;;-144.05;100.00;68007.91;5013888;28;20041;-75
2022/03/02 14:35:16;;;;;;;14.68;8.13;;;12.40;46.20;;;-144.05;100.00;68007.91;5014444;28;20112;-76
2022/03/02 14:39:46;;;;;;;11.55;6.97;;;12.30;45.90;;;-144.05;100.00;68007.91;5012452;28;20452;-77
2022/03/02 14:44:19;;;;;;;10.98;7.50;;;12.30;47.20;;;-144.05;100.00;68007.91;5012359;28;20036;-74
2022/03/02 14:48:48;;;;;;;11.30;6.80;;;12.30;46.40;;;-144.05;100.00;68007.91;5032086;28;20029;-78
2022/03/02 14:53:18;;;;;;;11.70;7.10;;;12.20;46.20;;;-144.05;100.00;68007.91;5033954;28;20034;-77
2022/03/02 14:57:54;;;;;;;11.15;7.25;;;12.10;46.80;;;-144.05;100.00;68007.91;5031857;28;20124;-75
2022/03/02 15:02:33;;;;;;;14.27;6.97;;;11.90;46.90;;;-144.05;100.00;68007.91;5033873;28;20030;-75
2022/03/02 15:07:07;;;;;;;11.60;6.70;;;11.80;47.10;;;-144.05;100.00;68007.91;5031258;28;20029;-77
2022/03/02 15:11:34;;;;;;;10.10;7.28;;;11.60;47.20;;;-144.05;100.00;68007.91;5031442;28;20040;-75
2022/03/02 15:16:25;;;;;;;10.63;6.85;;;11.60;48.40;;;-144.05;100.00;68007.91;5032955;28;20029;-77
2022/03/02 15:21:03;;;;;;;10.70;7.13;;;11.60;48.60;;;-144.05;100.00;68007.91;5033633;28;20103;-77
2022/03/02 15:25:35;;;;;;;11.75;7.65;;;11.30;48.50;;;-144.05;100.00;68007.91;5032900;28;20064;-77
2022/03/02 15:30:16;;;;;;;9.70;6.82;;;11.20;49.20;;;-144.05;100.00;68007.91;5033330;28;20082;-77
2022/03/02 15:34:44;;;;;;;11.23;7.37;;;11.10;49.50;;;-144.05;100.00;68007.91;5034076;28;20509;-77
2022/03/02 15:39:29;;;;;;;10.57;6.10;;;10.90;48.80;;;-144.05;100.00;68007.91;5033694;28;20370;-78
2022/03/02 15:44:18;;;;;;;9.20;5.45;;;10.70;47.60;;;-144.05;100.00;68007.91;5031623;28;20075;-76
2022/03/02 15:49:00;;;;;;;10.82;6.03;;;10.60;47.60;;;-144.05;100.00;68007.91;5012989;28;20033;-77
2022/03/02 15:53:39;;;;;;;11.77;7.13;;;10.50;48.50;;;-144.05;100.00;68007.91;5012543;28;20120;-77
2022/03/02 15:58:14;;;;;;;10.65;6.32;;;10.40;50.10;;;-144.05;100.00;68007.91;5013114;28;20029;-75
2022/03/02 16:02:46;;;;;;;14.20;7.07;;;10.30;52.20;;;-144.05;100.00;68007.91;5012770;28;20026;-76
2022/03/02 16:07:14;;;;;;;12.68;6.65;;;10.10;53.80;;;-144.05;100.00;68007.91;5028755;28;20325;-77
2022/03/02 16:12:11;;;;;;;12.50;7.50;;;10.00;53.50;;;-144.05;100.00;68007.91;5023305;28;20064;-76
2022/03/02 16:16:59;;;;;;;10.20;6.57;;;10.00;53.80;;;-144.05;100.00;68007.91;5013053;28;20508;-78
2022/03/02 16:21:27;;;;;;;10.52;6.82;;;9.80;53.20;;;-144.05;100.00;68007.91;5014536;28;20046;-76
2022/03/02 16:25:55;;;;;;;10.63;7.18;;;9.80;53.90;;;-144.05;100.00;68007.91;5012873;28;20129;-77
2022/03/02 16:30:40;;;;;;;10.90;6.60;;;9.80;54.70;;;-144.05;100.00;68007.91;5012344;28;20118;-78
2022/03/02 16:35:09;;;;;;;9.88;6.88;;;9.60;55.70;;;-144.05;100.00;68007.91;5012294;28;20121;-76
2022/03/02 16:39:39;;;;;;;10.80;6.82;;;9.50;56.20;;;-144.05;100.00;68007.91;5012946;28;20041;-77
2022/03/02 16:44:11;;;;;;;10.15;6.88;;;9.40;56.00;;;-144.05;100.00;68007.91;5018715;28;20428;-77
2022/03/02 16:48:41;;;;;;;9.07;6.10;;;9.20;55.90;;;-144.05;100.00;68007.91;5034110;28;20042;-77
2022/03/02 16:53:09;;;;;;;7.55;5.50;;;9.10;54.70;;;-144.05;100.00;68007.91;5031805;28;20120;-79
2022/03/02 16:57:41;;;;;;;7.80;5.63;;;9.00;54.40;;;-144.05;100.00;68007.91;5032595;28;20443;-77
2022/03/02 17:02:10;;;;;;;10.70;6.40;;;8.90;54.70;;;-144.05;100.00;68007.91;5034371;28;20473;-76
2022/03/02 17:06:46;;;;;;;8.55;5.63;;;8.70;55.20;;;-144.05;100.00;68007.91;5037608;28;20040;-77
2022/03/02 17:11:21;;;;;;;11.13;5.93;;;8.50;54.80;;;-144.05;100.00;68007.91;5035299;28;20040;-77
2022/03/02 17:20:24;;;;;;;9.13;6.30;;;8.20;55.70;;;-144.05;100.00;68007.91;5029739;28;20037;-83
2022/03/02 17:24:52;;;;;;;10.93;6.55;;;8.20;55.90;;;-144.05;100.00;68007.91;5032938;28;20052;-80
2022/03/02 17:29:23;;;;;;;9.68;6.38;;;8.20;56.30;;;-144.05;100.00;68007.91;5030957;28;20102;-81
2022/03/02 17:33:51;;;;;;;10.48;6.18;;;8.30;56.00;;;-144.05;100.00;68007.91;5032847;28;20034;-82
2022/03/02 17:38:21;;;;;;;9.95;5.78;;;8.10;56.60;;;-144.05;100.00;68007.91;5032062;28;20034;-82
2022/03/02 17:42:51;;;;;;;12.05;7.50;;;8.00;56.60;;;-144.05;100.00;68007.91;5032148;28;20137;-82
2022/03/02 17:47:19;;;;;;;11.20;6.00;;;8.00;56.70;;;-144.05;100.00;68007.91;5052149;28;20085;-81
2022/03/02 17:51:50;;;;;;;11.38;6.88;;;7.90;57.00;;;-144.05;100.00;68007.91;5052518;28;20106;-81
2022/03/02 17:56:21;;;;;;;11.23;6.50;;;7.70;56.90;;;-144.05;100.00;68007.91;5051571;28;20038;-81
2022/03/02 18:00:51;;;;;;;11.68;7.30;;;7.50;57.40;;;-144.05;100.00;68007.91;5050963;28;20112;-82
2022/03/02 18:05:19;;;;;;;14.30;7.35;;;7.40;57.70;;;-144.05;100.00;68007.91;5051725;28;20026;-82
2022/03/02 18:09:50;;;;;;;13.27;7.10;;;7.30;57.80;;;-144.05;100.00;68007.91;5051527;28;20035;-82
2022/03/02 18:14:21;;;;;;;12.80;7.03;;;7.10;58.40;;;-144.05;100.00;68007.91;5050060;28;20040;-81
2022/03/02 18:18:50;;;;;;;11.88;6.53;;;7.00;59.00;;;-144.05;100.00;68007.91;5049153;28;20041;-81
2022/03/02 18:23:24;;;;;;;11.55;7.72;;;7.10;59.10;;;-144.05;100.00;68007.91;5050777;28;20068;-82
2022/03/02 18:28:02;;;;;;;11.70;6.68;;;7.00;59.40;;;-144.05;100.00;68007.91;5050388;28;20049;-80
2022/03/02 18:32:32;;;;;;;14.50;7.00;;;6.90;59.70;;;-144.05;100.00;68007.91;5049682;28;20045;-81
2022/03/02 18:37:05;;;;;;;13.00;6.72;;;6.90;59.60;;;-144.05;100.00;68007.91;5050815;28;20033;-81